Time;durP1;ratioP1;P1;durP2;ratioP2;P2;SDS_P1;SDS_P2;PMS_P1;PMS_P2;Temp;Humidity;BMP_temperature;BMP_pressure;BME280_temperature;BME280_humidity;BME280_pressure;Samples;Min_cycle;Max_cycle;Signal;HPM_P1;HPM_P2
2023/10/28 00:00:59;;;;;;;9.13;5.20;;;11.10;94.90;;;;;;755732;186;27130;-85
2023/10/28 00:03:39;;;;;;;15.03;5.63;;;11.10;95.10;;;;;;771426;181;27053;-83
2023/10/28 00:09:01;;;;;;;12.80;5.40;;;11.00;95.50;;;;;;778773;180;26532;-86
2023/10/28 00:11:37;;;;;;;11.73;5.87;;;11.00;95.60;;;;;;777317;182;26476;-85
2023/10/28 00:16:57;;;;;;;12.27;5.60;;;11.00;95.80;;;;;;779161;179;26421;-87
2023/10/28 00:19:28;;;;;;;11.07;5.93;;;11.00;96.00;;;;;;772757;183;26509;-89
2023/10/28 00:22:00;;;;;;;10.63;5.30;;;11.00;96.00;;;;;;774525;183;26467;-85
2023/10/28 00:24:29;;;;;;;11.97;4.57;;;11.10;96.10;;;;;;782249;183;26486;-83
2023/10/28 00:27:00;;;;;;;8.47;4.40;;;11.10;96.10;;;;;;786741;179;26461;-83
2023/10/28 00:29:30;;;;;;;13.03;5.40;;;11.00;96.20;;;;;;785482;180;26507;-88
2023/10/28 00:32:02;;;;;;;9.27;5.23;;;11.10;96.20;;;;;;783708;178;27069;-89
2023/10/28 00:34:32;;;;;;;11.03;4.87;;;11.10;96.40;;;;;;785426;179;26467;-84
2023/10/28 00:37:04;;;;;;;9.20;5.40;;;11.10;96.40;;;;;;777997;181;26999;-83
2023/10/28 00:39:33;;;;;;;10.87;4.63;;;11.10;96.40;;;;;;779090;183;26484;-85
2023/10/28 00:42:01;;;;;;;13.93;5.37;;;11.10;96.50;;;;;;780134;179;26477;-85
2023/10/28 00:44:26;;;;;;;12.40;6.30;;;11.10;96.70;;;;;;779755;181;26523;-84
2023/10/28 00:46:53;;;;;;;11.87;5.17;;;11.20;96.80;;;;;;779532;179;26453;-84
2023/10/28 00:49:24;;;;;;;9.20;5.10;;;11.10;96.70;;;;;;785557;181;26464;-85
2023/10/28 00:51:56;;;;;;;10.00;5.50;;;11.10;96.80;;;;;;787577;181;26472;-84
2023/10/28 00:54:25;;;;;;;13.87;6.40;;;11.20;96.80;;;;;;774456;181;26530;-84
2023/10/28 00:56:55;;;;;;;11.20;6.17;;;11.20;96.80;;;;;;785203;179;26470;-84
2023/10/28 00:59:27;;;;;;;9.77;6.20;;;11.20;96.80;;;;;;774581;181;26505;-83
2023/10/28 01:01:54;;;;;;;12.13;6.87;;;11.10;96.90;;;;;;763670;184;26512;-83
2023/10/28 01:04:24;;;;;;;13.37;6.30;;;11.20;97.10;;;;;;762184;188;27074;-85
2023/10/28 01:06:54;;;;;;;11.67;6.33;;;11.20;97.10;;;;;;765817;187;27073;-84
2023/10/28 01:09:27;;;;;;;11.47;6.60;;;11.30;97.20;;;;;;769081;184;26490;-85
2023/10/28 01:12:06;;;;;;;18.30;8.83;;;11.30;97.20;;;;;;756744;187;27078;-84
2023/10/28 01:14:36;;;;;;;14.93;6.43;;;11.30;97.40;;;;;;756785;188;26520;-86
2023/10/28 01:17:14;;;;;;;17.00;7.53;;;11.40;97.60;;;;;;750625;187;26494;-86
2023/10/28 01:19:53;;;;;;;13.23;6.03;;;11.40;97.60;;;;;;753049;188;26494;-86
2023/10/28 01:25:31;;;;;;;11.93;7.40;;;11.30;97.30;;;;;;723530;181;26489;-87
2023/10/28 01:28:08;;;;;;;12.27;7.03;;;11.30;97.40;;;;;;775403;185;26464;-88
2023/10/28 01:30:48;;;;;;;13.20;7.37;;;11.30;97.80;;;;;;769054;184;26455;-87
2023/10/28 01:33:35;;;;;;;14.80;7.23;;;11.30;97.60;;;;;;785001;183;26517;-86
2023/10/28 01:36:12;;;;;;;12.77;5.80;;;11.30;97.50;;;;;;780937;181;26465;-86
2023/10/28 01:38:42;;;;;;;15.17;7.37;;;11.30;97.50;;;;;;780865;180;26531;-85
2023/10/28 01:41:16;;;;;;;15.07;7.13;;;11.30;97.40;;;;;;781145;182;27023;-85
2023/10/28 01:43:45;;;;;;;11.90;6.07;;;11.30;97.50;;;;;;783639;181;26451;-87
2023/10/28 01:46:29;;;;;;;16.57;7.40;;;11.30;97.60;;;;;;777074;183;27123;-86
2023/10/28 01:49:13;;;;;;;12.80;6.53;;;11.30;97.60;;;;;;781675;180;26452;-87
2023/10/28 01:51:42;;;;;;;13.03;6.70;;;11.30;97.60;;;;;;780195;175;26544;-87
2023/10/28 01:54:19;;;;;;;14.17;7.33;;;11.30;97.50;;;;;;780453;178;26467;-87
2023/10/28 01:56:54;;;;;;;13.80;6.70;;;11.30;97.60;;;;;;780142;184;26487;-87
2023/10/28 01:59:32;;;;;;;9.83;6.57;;;11.30;97.60;;;;;;780112;179;26465;-86
2023/10/28 02:02:08;;;;;;;12.20;6.33;;;11.30;98.00;;;;;;781403;183;26465;-86
2023/10/28 02:04:35;;;;;;;14.47;6.87;;;11.30;97.70;;;;;;780607;183;27135;-88
2023/10/28 02:07:16;;;;;;;12.43;6.20;;;11.30;97.60;;;;;;787571;180;26468;-88
2023/10/28 02:09:57;;;;;;;70.37;35.90;;;11.30;97.60;;;;;;789757;179;26488;-86
2023/10/28 02:12:25;;;;;;;37.70;16.67;;;11.30;97.60;;;;;;793554;180;26474;-87
2023/10/28 02:14:52;;;;;;;95.77;43.63;;;11.30;97.60;;;;;;796895;180;26475;-85
2023/10/28 02:17:28;;;;;;;79.57;39.10;;;11.20;97.50;;;;;;794285;177;26455;-85
2023/10/28 02:19:58;;;;;;;10.33;6.20;;;11.30;97.60;;;;;;787521;181;26509;-85
2023/10/28 02:22:30;;;;;;;16.83;9.33;;;11.30;97.50;;;;;;785809;182;27013;-86
2023/10/28 02:25:03;;;;;;;12.93;6.83;;;11.20;97.50;;;;;;783636;182;26464;-84
2023/10/28 02:27:35;;;;;;;10.17;5.20;;;11.30;97.60;;;;;;786685;180;27010;-84
2023/10/28 02:30:32;;;;;;;20.23;10.33;;;11.30;97.60;;;;;;792848;179;26459;-86
2023/10/28 02:33:06;;;;;;;10.53;5.27;;;11.30;97.50;;;;;;792947;180;26468;-85
2023/10/28 02:35:35;;;;;;;11.30;4.87;;;11.30;97.40;;;;;;793277;181;26482;-85
2023/10/28 02:38:04;;;;;;;11.40;7.60;;;11.30;97.40;;;;;;788204;181;26452;-85
2023/10/28 02:40:33;;;;;;;9.17;5.43;;;11.30;97.40;;;;;;789787;180;26446;-86
2023/10/28 02:43:11;;;;;;;9.90;4.67;;;11.30;97.30;;;;;;791592;178;26455;-85
2023/10/28 02:45:41;;;;;;;7.83;4.60;;;11.30;97.20;;;;;;790752;181;26448;-84
2023/10/28 02:48:23;;;;;;;7.60;3.90;;;11.30;97.20;;;;;;792051;180;27052;-84
2023/10/28 02:51:05;;;;;;;6.67;4.37;;;11.30;96.90;;;;;;789215;180;26562;-85
2023/10/28 02:53:33;;;;;;;6.00;3.10;;;11.30;97.00;;;;;;809422;176;26967;-85
2023/10/28 02:56:10;;;;;;;8.53;3.73;;;11.30;96.70;;;;;;813523;176;26424;-85
2023/10/28 03:01:31;;;;;;;6.43;3.40;;;11.20;96.70;;;;;;814799;173;26448;-84
2023/10/28 03:04:03;;;;;;;5.43;2.70;;;11.20;96.60;;;;;;821838;171;28014;-85
2023/10/28 03:06:32;;;;;;;4.93;3.57;;;11.10;96.40;;;;;;816867;170;26391;-83
2023/10/28 03:09:01;;;;;;;6.17;3.30;;;11.10;96.50;;;;;;822669;171;26462;-83
2023/10/28 03:11:32;;;;;;;6.50;3.50;;;11.10;96.60;;;;;;826938;170;26416;-82
2023/10/28 03:14:01;;;;;;;2.50;2.30;;;11.20;96.70;;;;;;820826;171;26408;-86
2023/10/28 03:16:31;;;;;;;5.43;2.70;;;11.20;96.30;;;;;;823629;171;26413;-84
2023/10/28 03:19:03;;;;;;;6.77;3.20;;;11.20;96.50;;;;;;818752;174;26394;-84
2023/10/28 03:21:33;;;;;;;3.80;2.50;;;11.10;96.50;;;;;;818122;174;26429;-84
2023/10/28 03:24:07;;;;;;;5.60;3.37;;;11.10;96.40;;;;;;817085;171;26945;-84
2023/10/28 03:26:36;;;;;;;3.33;2.57;;;11.10;96.30;;;;;;818656;174;28044;-85
2023/10/28 03:29:11;;;;;;;4.90;2.70;;;11.10;96.40;;;;;;821541;171;26400;-84
2023/10/28 03:31:38;;;;;;;3.03;2.40;;;11.10;96.20;;;;;;801450;173;27046;-85
2023/10/28 03:34:06;;;;;;;4.13;3.00;;;11.10;96.20;;;;;;794487;180;26455;-84
2023/10/28 03:36:37;;;;;;;4.33;2.60;;;11.10;96.30;;;;;;788475;180;26997;-84
2023/10/28 03:39:08;;;;;;;5.90;2.70;;;11.00;96.20;;;;;;788583;180;26515;-85
2023/10/28 03:41:40;;;;;;;4.80;2.57;;;11.00;96.10;;;;;;784833;181;28130;-85
2023/10/28 03:44:11;;;;;;;5.27;2.60;;;11.00;96.00;;;;;;791585;180;26995;-86
2023/10/28 03:46:43;;;;;;;5.60;2.63;;;11.00;96.10;;;;;;789212;179;26504;-84
2023/10/28 03:49:21;;;;;;;4.73;2.60;;;11.00;96.20;;;;;;791234;182;26435;-84
2023/10/28 03:51:50;;;;;;;4.40;2.70;;;11.00;96.30;;;;;;762683;179;26566;-84
2023/10/28 03:54:19;;;;;;;4.43;2.97;;;10.90;96.00;;;;;;778135;183;26485;-82
2023/10/28 03:56:47;;;;;;;5.93;3.63;;;10.80;96.00;;;;;;775311;180;28076;-84
2023/10/28 03:59:22;;;;;;;5.13;3.20;;;10.70;96.10;;;;;;770957;182;26489;-83
2023/10/28 04:01:51;;;;;;;5.17;3.47;;;10.70;96.30;;;;;;765771;184;26517;-83
2023/10/28 04:04:31;;;;;;;4.87;3.57;;;10.70;96.70;;;;;;759082;183;26501;-85
2023/10/28 04:07:01;;;;;;;3.87;2.87;;;10.60;96.50;;;;;;758532;187;26507;-84
2023/10/28 04:09:37;;;;;;;4.33;3.00;;;10.60;96.60;;;;;;757179;185;26520;-84
2023/10/28 04:12:05;;;;;;;8.80;4.83;;;10.60;96.70;;;;;;757571;186;26587;-84
2023/10/28 04:14:38;;;;;;;5.23;3.90;;;10.50;96.60;;;;;;741454;190;27055;-83
2023/10/28 04:17:07;;;;;;;6.57;4.07;;;10.40;96.60;;;;;;757194;189;26582;-83
2023/10/28 04:19:37;;;;;;;9.23;4.23;;;10.50;96.90;;;;;;756270;185;26556;-83
2023/10/28 04:22:09;;;;;;;5.47;2.53;;;10.50;96.90;;;;;;761143;185;26514;-84
2023/10/28 04:24:43;;;;;;;5.27;3.37;;;10.50;97.00;;;;;;764802;183;26522;-83
2023/10/28 04:27:10;;;;;;;6.60;3.63;;;10.50;97.00;;;;;;764178;185;26582;-83
2023/10/28 04:29:40;;;;;;;5.30;2.97;;;10.50;97.10;;;;;;764183;185;26651;-83
2023/10/28 04:32:09;;;;;;;4.73;2.80;;;10.50;97.10;;;;;;763427;181;26522;-85
2023/10/28 04:34:39;;;;;;;4.97;3.23;;;10.50;97.20;;;;;;775402;184;26458;-82
2023/10/28 04:37:07;;;;;;;5.07;2.97;;;10.60;97.30;;;;;;775502;185;26457;-83
2023/10/28 04:39:41;;;;;;;4.57;3.10;;;10.70;97.30;;;;;;760130;189;26459;-83
2023/10/28 04:42:10;;;;;;;6.00;2.63;;;10.70;97.20;;;;;;765634;188;26575;-86
2023/10/28 04:44:37;;;;;;;5.77;2.73;;;10.80;97.20;;;;;;760283;182;26517;-87
2023/10/28 04:47:04;;;;;;;4.57;2.83;;;10.80;97.00;;;;;;774595;184;26500;-87
2023/10/28 04:49:30;;;;;;;4.43;2.87;;;10.80;96.80;;;;;;780118;183;27113;-87
2023/10/28 04:51:57;;;;;;;4.10;3.20;;;10.80;96.70;;;;;;781472;181;26499;-87
2023/10/28 04:54:24;;;;;;;5.63;4.37;;;10.80;96.70;;;;;;780671;181;27027;-87
2023/10/28 04:56:50;;;;;;;3.33;2.87;;;10.80;96.50;;;;;;767758;184;26506;-86
2023/10/28 04:59:17;;;;;;;5.23;3.43;;;10.80;96.40;;;;;;767943;184;26561;-87
2023/10/28 05:01:43;;;;;;;3.77;3.10;;;10.80;96.40;;;;;;766966;186;26516;-86
2023/10/28 05:04:10;;;;;;;7.40;3.37;;;10.80;96.50;;;;;;768119;184;26495;-87
2023/10/28 05:06:37;;;;;;;6.03;4.30;;;10.80;96.70;;;;;;769300;186;26508;-87
2023/10/28 05:09:03;;;;;;;6.07;3.23;;;10.80;96.50;;;;;;768925;187;26487;-87
2023/10/28 05:11:30;;;;;;;4.27;3.33;;;10.80;96.30;;;;;;768578;184;26514;-87
2023/10/28 05:13:56;;;;;;;4.37;2.73;;;10.90;96.30;;;;;;767033;183;26495;-87
2023/10/28 05:16:23;;;;;;;3.80;2.60;;;10.90;96.40;;;;;;767030;184;26515;-87
2023/10/28 05:18:49;;;;;;;3.37;2.30;;;10.90;96.40;;;;;;767109;187;26496;-87
2023/10/28 05:21:16;;;;;;;3.63;2.23;;;10.90;96.20;;;;;;766995;186;26520;-87
2023/10/28 05:23:43;;;;;;;3.67;2.17;;;10.80;96.00;;;;;;767177;184;26594;-89
2023/10/28 05:26:09;;;;;;;4.67;2.37;;;10.80;96.20;;;;;;767122;184;26553;-88
2023/10/28 05:28:36;;;;;;;5.20;2.17;;;10.80;96.10;;;;;;767175;184;26491;-89
2023/10/28 05:31:03;;;;;;;4.90;2.10;;;10.80;96.10;;;;;;766250;187;26537;-89
2023/10/28 05:33:29;;;;;;;4.33;2.27;;;10.80;95.90;;;;;;766444;184;26573;-90
2023/10/28 05:35:56;;;;;;;3.50;2.37;;;10.80;96.00;;;;;;766388;184;26575;-89
2023/10/28 05:38:22;;;;;;;4.27;1.90;;;10.90;96.10;;;;;;766302;187;26501;-89
2023/10/28 05:40:49;;;;;;;2.83;2.20;;;10.80;95.70;;;;;;766709;187;26524;-88
2023/10/28 05:43:15;;;;;;;4.53;1.80;;;10.80;95.80;;;;;;767957;184;26495;-89
2023/10/28 05:45:42;;;;;;;2.70;2.43;;;10.80;95.80;;;;;;767106;184;26601;-89
2023/10/28 05:48:09;;;;;;;2.83;2.00;;;10.80;96.00;;;;;;766302;184;26584;-89
2023/10/28 05:50:35;;;;;;;5.20;2.40;;;10.80;95.80;;;;;;766416;186;26544;-89
2023/10/28 05:53:02;;;;;;;6.80;2.40;;;10.80;95.80;;;;;;766321;186;26523;-89
2023/10/28 05:55:28;;;;;;;3.87;2.17;;;10.80;95.90;;;;;;766098;187;26548;-89
2023/10/28 05:57:55;;;;;;;4.07;2.70;;;10.80;95.90;;;;;;767149;186;26512;-88
2023/10/28 06:00:21;;;;;;;5.77;2.80;;;10.80;96.00;;;;;;766882;187;26558;-89
2023/10/28 06:02:48;;;;;;;4.17;2.60;;;10.80;96.00;;;;;;766504;185;26497;-89
2023/10/28 06:05:15;;;;;;;5.70;3.07;;;10.70;95.80;;;;;;769192;183;26580;-89
2023/10/28 06:07:47;;;;;;;4.00;2.40;;;10.70;95.90;;;;;;768052;183;26487;-89
2023/10/28 06:10:10;;;;;;;6.20;2.60;;;10.70;96.00;;;;;;767668;187;26532;-89
2023/10/28 06:12:35;;;;;;;5.53;2.90;;;10.70;96.20;;;;;;767440;184;27031;-89
2023/10/28 06:15:01;;;;;;;4.53;2.60;;;10.60;96.10;;;;;;767243;187;26518;-89
2023/10/28 06:17:28;;;;;;;4.37;3.37;;;10.60;96.20;;;;;;767154;187;27040;-89
2023/10/28 06:19:54;;;;;;;5.63;3.50;;;10.60;96.30;;;;;;767674;187;26525;-89
2023/10/28 06:22:21;;;;;;;4.27;2.70;;;10.60;96.40;;;;;;767260;184;27113;-89
2023/10/28 06:24:49;;;;;;;10.00;2.70;;;10.60;96.40;;;;;;767382;184;26543;-90
2023/10/28 06:27:14;;;;;;;3.87;3.00;;;10.70;96.30;;;;;;766636;186;27299;-90
2023/10/28 06:29:41;;;;;;;5.80;2.60;;;10.70;96.30;;;;;;767134;186;26495;-89
2023/10/28 06:32:08;;;;;;;6.20;3.27;;;10.60;96.20;;;;;;766740;184;26546;-89
2023/10/28 06:34:34;;;;;;;7.13;3.10;;;10.70;96.40;;;;;;766464;184;26557;-88
2023/10/28 06:37:00;;;;;;;5.07;2.90;;;10.80;96.20;;;;;;766448;187;26525;-88
2023/10/28 06:39:27;;;;;;;4.17;2.97;;;10.70;96.10;;;;;;766365;186;26534;-88
2023/10/28 06:41:54;;;;;;;6.30;3.07;;;10.80;96.20;;;;;;766338;186;26501;-88
2023/10/28 06:44:22;;;;;;;6.23;3.33;;;10.80;96.20;;;;;;766973;187;26495;-87
2023/10/28 06:46:47;;;;;;;5.03;3.10;;;10.90;96.30;;;;;;765590;184;27019;-88
2023/10/28 06:49:13;;;;;;;4.10;2.60;;;10.90;96.20;;;;;;767844;187;26507;-90
2023/10/28 06:51:40;;;;;;;6.00;2.77;;;10.90;96.20;;;;;;767802;187;27065;-89
2023/10/28 06:54:07;;;;;;;3.63;2.50;;;10.90;96.20;;;;;;767620;184;26538;-88
2023/10/28 06:56:34;;;;;;;3.30;3.00;;;10.90;95.90;;;;;;767869;184;27070;-88
2023/10/28 06:59:00;;;;;;;5.10;2.77;;;11.00;96.20;;;;;;767929;187;26524;-87
2023/10/28 07:01:26;;;;;;;2.93;2.53;;;11.00;96.30;;;;;;767722;187;27079;-88
2023/10/28 07:03:53;;;;;;;4.77;2.40;;;11.00;95.90;;;;;;768017;187;26520;-88
2023/10/28 07:06:20;;;;;;;4.37;2.40;;;11.10;95.90;;;;;;767500;184;26523;-88
2023/10/28 07:08:46;;;;;;;3.93;2.57;;;11.10;95.70;;;;;;767355;183;26499;-87
2023/10/28 07:11:13;;;;;;;5.43;2.50;;;11.10;95.70;;;;;;766970;187;26490;-86
2023/10/28 07:13:39;;;;;;;4.80;2.10;;;11.10;95.50;;;;;;767902;187;26588;-87
2023/10/28 07:16:06;;;;;;;2.60;1.93;;;11.20;95.10;;;;;;769698;185;26553;-86
2023/10/28 07:18:33;;;;;;;4.13;2.23;;;11.20;95.40;;;;;;767010;186;27047;-88
2023/10/28 07:21:00;;;;;;;3.97;2.70;;;11.30;95.50;;;;;;768537;183;27233;-88
2023/10/28 07:23:27;;;;;;;6.70;2.80;;;11.30;95.50;;;;;;769281;187;26498;-87
2023/10/28 07:25:53;;;;;;;4.43;2.30;;;11.30;95.30;;;;;;768825;184;26606;-88
2023/10/28 07:28:20;;;;;;;3.10;2.00;;;11.30;95.50;;;;;;768749;184;28123;-90
2023/10/28 07:30:48;;;;;;;3.87;2.10;;;11.20;95.50;;;;;;769018;187;26538;-91
2023/10/28 07:33:13;;;;;;;3.03;1.90;;;11.30;95.50;;;;;;766913;184;27070;-91
2023/10/28 07:35:42;;;;;;;5.00;2.40;;;11.20;95.60;;;;;;764331;185;26571;-92
2023/10/28 07:38:06;;;;;;;5.73;2.47;;;11.10;95.80;;;;;;766441;187;27053;-91
2023/10/28 07:40:33;;;;;;;6.87;2.43;;;11.10;96.20;;;;;;766822;183;26533;-91
2023/10/28 07:43:10;;;;;;;8.20;2.47;;;11.10;96.40;;;;;;766169;183;26520;-92
2023/10/28 07:45:46;;;;;;;4.37;2.37;;;11.10;96.50;;;;;;752333;185;26913;-90
2023/10/28 07:48:21;;;;;;;7.40;3.07;;;11.00;96.40;;;;;;766726;187;26487;-91
2023/10/28 07:51:26;;;;;;;;;;;;;;;;;;;;;
2023/10/28 07:57:38;;;;;;;;;;;;;;;;;;;;;
2023/10/28 07:59:47;;;;;;;7.10;3.00;;;10.90;97.40;;;;;;748443;190;26790;-91
2023/10/28 08:02:19;;;;;;;5.80;3.33;;;11.00;97.80;;;;;;767207;187;26560;-91
2023/10/28 08:04:47;;;;;;;4.17;2.43;;;11.00;97.80;;;;;;768016;184;26514;-91
2023/10/28 08:22:10;;;;;;;;;;;;;;;;;;;;;
2023/10/28 08:24:12;;;;;;;4.40;2.80;;;11.30;97.60;;;;;;761520;185;26489;-89
2023/10/28 08:26:40;;;;;;;5.87;2.50;;;11.30;97.60;;;;;;751668;188;26532;-90
2023/10/28 08:29:18;;;;;;;3.30;2.50;;;11.30;97.60;;;;;;785889;173;26490;-87
2023/10/28 08:31:50;;;;;;;7.33;2.50;;;11.40;97.90;;;;;;779946;184;26477;-87
2023/10/28 08:34:33;;;;;;;3.57;2.77;;;11.40;97.30;;;;;;781008;181;26478;-87
2023/10/28 08:37:18;;;;;;;3.97;2.60;;;11.40;97.40;;;;;;778414;181;26477;-86
2023/10/28 08:39:58;;;;;;;5.50;2.27;;;11.50;97.20;;;;;;775950;176;27125;-88
2023/10/28 08:42:38;;;;;;;5.07;2.90;;;11.50;97.30;;;;;;787918;181;26457;-88
2023/10/28 08:45:10;;;;;;;4.70;2.20;;;11.60;97.70;;;;;;776357;182;26988;-87
2023/10/28 08:50:30;;;;;;;4.77;2.80;;;11.70;97.40;;;;;;717392;180;26614;-87
2023/10/28 08:52:57;;;;;;;5.33;2.57;;;11.70;97.20;;;;;;768707;187;26495;-86
2023/10/28 08:55:44;;;;;;;8.23;2.67;;;11.70;97.20;;;;;;767490;183;26567;-86
2023/10/28 08:58:38;;;;;;;5.50;2.97;;;11.80;97.10;;;;;;767601;187;26533;-86
2023/10/28 09:06:35;;;;;;;6.13;2.70;;;11.80;96.90;;;;;;725371;179;26515;-90
2023/10/28 09:09:06;;;;;;;7.87;2.80;;;11.80;96.90;;;;;;778278;182;26577;-91
2023/10/28 09:11:33;;;;;;;6.07;2.63;;;11.90;97.10;;;;;;772279;184;27032;-90
2023/10/28 09:14:04;;;;;;;5.53;2.83;;;12.00;96.90;;;;;;793439;176;26472;-90
2023/10/28 09:16:34;;;;;;;6.77;3.20;;;12.00;96.90;;;;;;806565;176;27819;-90
2023/10/28 09:19:01;;;;;;;4.13;2.80;;;12.10;96.70;;;;;;804880;178;26465;-90
2023/10/28 09:21:28;;;;;;;4.27;3.17;;;12.20;97.10;;;;;;802675;177;26463;-89
2023/10/28 09:23:55;;;;;;;5.10;3.10;;;12.20;96.80;;;;;;801501;178;26453;-90
2023/10/28 09:26:22;;;;;;;8.63;3.77;;;12.30;96.70;;;;;;804618;177;26444;-90
2023/10/28 09:28:49;;;;;;;5.17;2.67;;;12.40;96.60;;;;;;797583;178;27019;-90
2023/10/28 09:31:23;;;;;;;6.70;2.70;;;12.50;96.30;;;;;;803908;178;26446;-91
2023/10/28 09:33:49;;;;;;;4.63;2.87;;;12.60;96.30;;;;;;802508;177;26430;-90
2023/10/28 09:36:16;;;;;;;5.20;2.80;;;12.60;96.10;;;;;;800098;178;26458;-91
2023/10/28 09:38:46;;;;;;;4.03;3.00;;;12.70;96.00;;;;;;802997;177;26427;-90
2023/10/28 09:41:13;;;;;;;5.80;3.00;;;12.90;95.80;;;;;;806401;177;26449;-90
2023/10/28 09:43:40;;;;;;;5.70;2.67;;;13.10;95.30;;;;;;807140;173;26979;-93
2023/10/28 09:46:06;;;;;;;6.17;2.90;;;13.10;95.20;;;;;;805450;177;26424;-90
2023/10/28 09:48:33;;;;;;;5.07;2.60;;;13.20;95.30;;;;;;802740;174;26493;-90
2023/10/28 09:51:00;;;;;;;3.37;2.27;;;13.30;94.60;;;;;;801604;177;26487;-90
2023/10/28 09:53:30;;;;;;;3.80;2.10;;;13.40;94.50;;;;;;805967;176;26434;-90
2023/10/28 09:55:57;;;;;;;4.00;2.20;;;13.50;94.50;;;;;;804676;177;28026;-90
2023/10/28 09:58:27;;;;;;;5.33;2.33;;;13.80;94.40;;;;;;801103;174;26468;-90
2023/10/28 10:00:52;;;;;;;8.13;2.30;;;13.90;94.40;;;;;;804865;177;26493;-89
2023/10/28 10:03:25;;;;;;;3.67;2.40;;;13.80;94.00;;;;;;800418;177;26996;-89
2023/10/28 10:05:53;;;;;;;3.67;2.40;;;13.90;94.00;;;;;;806195;177;26480;-90
2023/10/28 10:08:19;;;;;;;3.70;2.23;;;13.90;93.80;;;;;;802510;177;26430;-89
2023/10/28 10:10:46;;;;;;;4.33;2.30;;;14.00;93.90;;;;;;799455;177;26454;-89
2023/10/28 10:13:15;;;;;;;4.90;2.80;;;14.00;93.70;;;;;;807289;174;26434;-89
2023/10/28 10:15:40;;;;;;;5.80;2.30;;;14.30;93.60;;;;;;801812;178;26422;-88
2023/10/28 10:18:10;;;;;;;4.63;2.40;;;14.40;93.10;;;;;;800779;178;27004;-88
2023/10/28 10:20:35;;;;;;;4.77;2.27;;;14.80;93.30;;;;;;801339;177;26429;-89
2023/10/28 10:23:02;;;;;;;3.60;2.50;;;15.20;92.10;;;;;;798299;178;26987;-88
2023/10/28 10:25:32;;;;;;;5.80;2.40;;;15.70;90.70;;;;;;797603;178;26425;-88
2023/10/28 10:28:07;;;;;;;3.60;2.10;;;15.90;90.40;;;;;;802587;177;26454;-89
2023/10/28 10:30:33;;;;;;;2.60;2.07;;;16.40;89.50;;;;;;798742;178;26540;-92
2023/10/28 10:33:00;;;;;;;3.20;2.10;;;17.30;82.50;;;;;;802469;177;26436;-90
2023/10/28 10:35:30;;;;;;;4.60;1.97;;;17.30;81.00;;;;;;807691;178;26421;-92
2023/10/28 10:38:02;;;;;;;3.93;1.70;;;17.70;81.50;;;;;;793245;177;26988;-89
2023/10/28 10:40:32;;;;;;;4.27;2.00;;;17.80;76.30;;;;;;801089;178;26491;-89
2023/10/28 10:43:05;;;;;;;6.50;4.13;;;16.20;77.60;;;;;;803358;177;26438;-88
2023/10/28 10:45:32;;;;;;;6.53;3.13;;;15.60;83.40;;;;;;800025;178;26455;-90
2023/10/28 10:47:59;;;;;;;7.10;2.80;;;15.40;82.60;;;;;;807965;178;26498;-88
2023/10/28 10:50:26;;;;;;;5.80;2.80;;;14.90;84.20;;;;;;805379;175;26448;-88
2023/10/28 10:52:52;;;;;;;7.63;3.00;;;14.80;86.90;;;;;;804426;177;26459;-91
2023/10/28 10:55:22;;;;;;;6.73;2.97;;;14.70;83.80;;;;;;805548;173;26438;-89
2023/10/28 10:57:47;;;;;;;7.90;3.07;;;14.60;85.50;;;;;;807021;177;26432;-87
2023/10/28 11:00:15;;;;;;;25.67;15.23;;;14.60;84.50;;;;;;806979;177;26426;-87
2023/10/28 11:02:42;;;;;;;150.97;79.90;;;14.50;83.20;;;;;;806608;177;26437;-87
2023/10/28 11:05:08;;;;;;;11.33;4.20;;;14.60;85.80;;;;;;804642;177;26434;-87
2023/10/28 11:07:35;;;;;;;88.30;46.47;;;14.60;86.80;;;;;;802076;176;26524;-88
2023/10/28 11:10:01;;;;;;;17.07;8.53;;;14.70;83.20;;;;;;808129;177;26417;-87
2023/10/28 11:12:28;;;;;;;17.37;6.80;;;14.80;82.90;;;;;;799483;177;26438;-87
2023/10/28 11:14:55;;;;;;;14.47;5.57;;;15.00;86.20;;;;;;800833;177;26972;-87
2023/10/28 11:17:21;;;;;;;18.13;10.37;;;15.10;83.50;;;;;;799605;174;26442;-87
2023/10/28 11:19:48;;;;;;;22.97;11.93;;;15.50;80.00;;;;;;796004;177;26445;-86
2023/10/28 11:22:14;;;;;;;11.93;4.43;;;15.40;80.00;;;;;;799925;176;26440;-88
2023/10/28 11:24:41;;;;;;;7.80;3.03;;;15.30;80.10;;;;;;800017;175;26993;-86
2023/10/28 11:27:08;;;;;;;9.00;2.93;;;15.40;79.10;;;;;;800337;174;26429;-85
2023/10/28 11:29:37;;;;;;;6.67;2.50;;;15.80;78.90;;;;;;799594;178;26434;-86
2023/10/28 11:32:05;;;;;;;7.57;3.10;;;16.60;78.60;;;;;;787373;181;26458;-86
2023/10/28 11:34:31;;;;;;;4.67;2.03;;;17.10;75.10;;;;;;791522;178;26433;-87
2023/10/28 11:36:58;;;;;;;7.00;2.93;;;16.30;72.90;;;;;;802959;177;26449;-86
2023/10/28 11:39:25;;;;;;;8.33;2.50;;;15.90;75.60;;;;;;801102;178;26437;-85
2023/10/28 11:41:52;;;;;;;5.43;2.37;;;15.60;76.40;;;;;;803341;178;26468;-87
2023/10/28 11:44:18;;;;;;;13.33;6.07;;;15.40;80.40;;;;;;802057;176;26429;-86
2023/10/28 11:46:46;;;;;;;62.33;33.53;;;15.10;78.30;;;;;;801252;176;27019;-86
2023/10/28 11:49:12;;;;;;;8.20;3.50;;;15.40;81.60;;;;;;802706;177;26413;-86
2023/10/28 11:51:39;;;;;;;37.40;20.47;;;15.40;79.60;;;;;;803217;174;26468;-86
2023/10/28 11:54:05;;;;;;;8.43;3.90;;;15.60;79.80;;;;;;802879;178;26968;-86
2023/10/28 11:56:32;;;;;;;14.23;6.43;;;15.50;77.80;;;;;;803786;177;26446;-86
2023/10/28 11:58:59;;;;;;;9.20;4.53;;;15.50;79.00;;;;;;802613;174;26442;-89
2023/10/28 12:01:26;;;;;;;6.93;2.67;;;15.40;78.50;;;;;;803833;177;26446;-87
2023/10/28 12:03:52;;;;;;;22.30;10.53;;;15.10;77.20;;;;;;803063;177;26430;-86
2023/10/28 12:06:20;;;;;;;20.03;10.90;;;15.40;81.30;;;;;;799661;177;26441;-86
2023/10/28 12:08:45;;;;;;;73.93;42.17;;;15.70;75.50;;;;;;801664;177;26978;-91
2023/10/28 12:11:12;;;;;;;27.30;15.47;;;16.50;75.50;;;;;;801864;177;27086;-86
2023/10/28 12:13:38;;;;;;;5.73;2.33;;;16.70;70.40;;;;;;801658;177;26498;-83
2023/10/28 12:16:05;;;;;;;14.23;7.30;;;16.00;71.90;;;;;;802966;177;26996;-85
2023/10/28 12:18:32;;;;;;;116.10;53.27;;;15.90;75.00;;;;;;807772;177;26421;-86
2023/10/28 12:20:58;;;;;;;9.33;4.80;;;15.60;73.30;;;;;;801313;174;28065;-86
2023/10/28 12:23:25;;;;;;;8.20;3.80;;;15.50;75.50;;;;;;801316;177;26429;-86
2023/10/28 12:25:52;;;;;;;36.37;23.20;;;15.20;74.80;;;;;;802546;177;26479;-86
2023/10/28 12:28:18;;;;;;;6.27;2.63;;;15.20;76.60;;;;;;802826;177;27015;-88
2023/10/28 12:30:45;;;;;;;6.20;2.80;;;15.30;76.40;;;;;;807063;177;26660;-85
2023/10/28 12:33:11;;;;;;;42.57;27.33;;;15.40;74.50;;;;;;801745;177;26993;-86
2023/10/28 12:35:38;;;;;;;6.90;4.40;;;15.90;73.00;;;;;;801165;177;26425;-84
2023/10/28 12:38:05;;;;;;;28.23;15.77;;;16.40;72.30;;;;;;802693;178;26430;-86
2023/10/28 12:40:32;;;;;;;35.03;19.80;;;16.60;68.20;;;;;;801303;174;26494;-86
2023/10/28 12:42:58;;;;;;;103.73;62.47;;;16.40;71.00;;;;;;800510;177;26437;-85
2023/10/28 12:45:25;;;;;;;22.73;14.53;;;16.30;70.10;;;;;;807560;177;26446;-85
2023/10/28 12:47:51;;;;;;;49.10;27.67;;;16.20;71.80;;;;;;808946;178;26474;-85
2023/10/28 12:50:18;;;;;;;15.47;7.43;;;15.90;72.50;;;;;;803976;177;26527;-87
2023/10/28 12:52:44;;;;;;;11.80;5.80;;;15.60;73.90;;;;;;795415;177;26462;-85
2023/10/28 12:55:11;;;;;;;11.80;5.70;;;15.40;74.80;;;;;;804191;178;26422;-85
2023/10/28 12:57:38;;;;;;;5.70;1.93;;;15.20;73.50;;;;;;803422;177;26429;-84
2023/10/28 13:00:09;;;;;;;8.07;2.67;;;15.20;72.80;;;;;;806459;178;26434;-87
2023/10/28 13:02:32;;;;;;;39.17;21.37;;;15.60;75.70;;;;;;804211;177;27041;-85
2023/10/28 13:04:58;;;;;;;106.50;55.90;;;16.00;74.00;;;;;;799825;178;26603;-88
2023/10/28 13:07:25;;;;;;;185.53;109.77;;;16.50;70.10;;;;;;799979;178;26457;-86
2023/10/28 13:09:52;;;;;;;82.00;48.77;;;16.90;68.70;;;;;;799582;177;28045;-84
2023/10/28 13:12:19;;;;;;;69.47;44.37;;;16.60;68.40;;;;;;805579;175;26461;-85
2023/10/28 13:14:47;;;;;;;136.07;82.80;;;16.20;69.70;;;;;;804503;177;26473;-85
2023/10/28 13:17:12;;;;;;;60.57;38.93;;;16.90;68.10;;;;;;811255;177;26446;-87
2023/10/28 13:19:38;;;;;;;49.77;29.87;;;16.70;68.50;;;;;;806229;177;26547;-85
2023/10/28 13:22:05;;;;;;;166.90;95.53;;;16.20;68.50;;;;;;799400;177;26446;-86
2023/10/28 13:24:31;;;;;;;6.93;3.57;;;16.30;70.90;;;;;;804532;177;26443;-85
2023/10/28 13:26:58;;;;;;;122.33;70.53;;;16.40;68.50;;;;;;806864;177;26422;-88
2023/10/28 13:29:30;;;;;;;27.30;16.80;;;16.60;70.90;;;;;;807842;177;26425;-83
2023/10/28 13:32:02;;;;;;;3.17;2.00;;;18.00;64.90;;;;;;802737;177;26433;-84
2023/10/28 13:34:34;;;;;;;2.67;2.00;;;18.80;58.40;;;;;;799735;177;26477;-85